RLSO2: Arkansas River, Ralston, OK

                                SHEF ID:       RLSO2     Arkansas River at Ralston, OK
STATION TYPE:
Regulating: Stage = 16.00, Flow = 78729

PRECIP STAGE STAGE(2) RIV-FLOW AIR-TEMP BAT-LOAD
in ft ft cfs F volt
Ccp-Rev Ccp-Rev Ccp-Rev Ccp-Rev Ccp-Rev Ccp-Rev
(America/Chicago)
02/12 00:00 0.00 4.51 4.55 1546 39.56 12.33
02/12 01:00 0.00 4.52 4.56 1562 38.12 12.31
02/12 02:00 0.00 4.53 4.53 1577 36.68 12.31
02/12 03:00 0.00 4.52 4.54 1562 35.60 12.30
02/12 04:00 0.00 4.52 4.56 1562 34.70 12.28
02/12 05:00 0.00 4.52 4.56 1562 33.80 12.27
02/12 06:00 0.00 4.53 4.54 1577 33.62 12.27
02/12 07:00 0.00 4.53 4.55 1577 33.26 12.25
02/12 08:00 0.00 4.52 4.56 1562 38.12 12.25
02/12 09:00 0.00 4.52 4.51 1562 48.02 12.29
02/12 10:00 0.00 4.47 4.49 1486 54.14 12.35
02/12 11:00 0.00 4.43 4.50 1427 57.92 12.44
02/12 12:00 0.00 4.44 4.52 1442 61.52 12.57
02/12 13:00 0.00 4.45 4.50 1456 64.40 12.59
02/12 14:00 0.00 4.46 4.51 1471 67.64 12.57
02/12 15:00 0.00 4.49 4.54 1516 69.80 12.54
02/12 16:00 0.00 4.51 4.54 1546 70.70 12.48
02/12 17:00 0.00 4.52 4.54 1562 69.44 12.44
02/12 18:00 0.00 4.52 4.54 1562 65.66 12.42
02/12 19:00 0.00 4.51 4.53 1546 60.98 12.40
02/12 20:00 0.00 4.50 4.54 1531 57.74 12.38
02/12 21:00 0.00 4.50 4.53 1531 54.68 12.37
02/12 22:00 0.00 4.50 4.51 1531 52.70 12.36
02/12 23:00 0.00 4.50 4.51 1531 51.62 12.35
Data processed at Fri 13Feb2026 05:21 GMT

NOTICE: If you are parsing this page

Please convert to using our Data API. Starting early 2026 we will be migrating to: https://water.usace.army.mil with modern pages rendered in JavaScript. When this migration completes you will no longer be able to scrape this page! CWMSDataAPI (CDA)

Timeseries IDs (TSIDs)

TSIDs used from left to right in the data table
RALS.Precip-Inc.Total.1Hour.1Hour.Ccp-Rev
RALS.Stage.Inst.1Hour.0.Ccp-Rev
RALS.Stage-Alt.Inst.1Hour.0.Ccp-Rev
RALS.Flow.Inst.1Hour.0.Ccp-Rev
RALS.Temp-Air.Inst.1Hour.0.Ccp-Rev
RALS.Volt-Battery Load.Inst.1Hour.0.Ccp-Rev

                            

All information presented herein is the property of the government of the United States of America and may be revised or deleted at any time without prior notice. Dissemination of this information without the expressed written consent of the Public Affairs Office, Tulsa District U.S. Army Corps of Engineers is strictly prohibited. These data are gathered electronically and, as presented, have NOT undergone any form of quality control. These data are NOT guaranteed to be valid or correct.